createdAt,value
2018-06-11T00:00:48.861Z,0.00
2018-06-11T00:01:48.859Z,0.00
2018-06-11T00:02:48.854Z,0.00
2018-06-11T00:03:48.849Z,0.00
2018-06-11T00:04:48.846Z,0.00
2018-06-11T00:05:48.840Z,0.00
2018-06-11T00:06:48.831Z,0.00
2018-06-11T00:07:48.824Z,0.00
2018-06-11T00:08:48.825Z,0.00
2018-06-11T00:09:48.822Z,0.00
2018-06-11T00:10:48.817Z,0.00
2018-06-11T00:11:48.809Z,0.00
2018-06-11T00:12:48.802Z,0.00
2018-06-11T00:13:48.792Z,0.00
2018-06-11T00:14:48.791Z,0.00
2018-06-11T00:15:48.784Z,0.00
2018-06-11T00:16:48.783Z,0.00
2018-06-11T00:17:48.774Z,0.00
2018-06-11T00:18:48.772Z,0.00
2018-06-11T00:19:48.765Z,0.00
2018-06-11T00:20:48.762Z,0.00
2018-06-11T00:21:48.757Z,0.00
2018-06-11T00:22:48.748Z,0.00
2018-06-11T00:23:48.746Z,0.00
2018-06-11T00:24:48.740Z,0.00
2018-06-11T00:25:48.739Z,0.00
2018-06-11T00:26:48.725Z,0.00
2018-06-11T00:27:48.723Z,0.00
2018-06-11T00:28:48.723Z,0.00
2018-06-11T00:29:48.714Z,0.00
2018-06-11T00:30:48.708Z,0.00
2018-06-11T00:31:48.703Z,0.00
2018-06-11T00:32:48.699Z,0.00
2018-06-11T00:33:48.694Z,0.00
2018-06-11T00:34:48.689Z,0.00
2018-06-11T00:35:48.683Z,0.00
2018-06-11T00:36:48.682Z,0.00
2018-06-11T00:37:48.672Z,0.00
2018-06-11T00:38:48.670Z,0.00
2018-06-11T00:39:48.663Z,0.00
2018-06-11T00:40:48.652Z,0.00
2018-06-11T00:41:48.649Z,0.00
2018-06-11T00:42:48.640Z,0.00
2018-06-11T00:43:48.641Z,0.00
2018-06-11T00:44:48.635Z,0.00
2018-06-11T00:45:48.628Z,0.00
2018-06-11T00:46:48.625Z,0.00
2018-06-11T00:47:48.617Z,0.00
2018-06-11T00:48:48.609Z,0.00
2018-06-11T00:49:48.606Z,0.00
2018-06-11T00:50:48.604Z,0.00
2018-06-11T00:51:48.596Z,0.00
2018-06-11T00:52:48.594Z,0.00
2018-06-11T00:53:48.589Z,0.00
2018-06-11T00:54:48.580Z,0.00
2018-06-11T00:55:48.575Z,0.00
2018-06-11T00:56:48.571Z,0.00
2018-06-11T00:57:48.563Z,0.00
2018-06-11T00:58:48.563Z,0.00
2018-06-11T00:59:48.558Z,0.00
2018-06-11T01:00:48.550Z,0.00
2018-06-11T01:01:48.546Z,0.00
2018-06-11T01:02:48.536Z,0.00
2018-06-11T01:03:48.533Z,0.00
2018-06-11T01:04:48.532Z,0.00
2018-06-11T01:05:48.524Z,0.00
2018-06-11T01:06:48.517Z,0.00
2018-06-11T01:07:48.516Z,0.00
2018-06-11T01:08:48.511Z,0.00
2018-06-11T01:09:48.502Z,0.00
2018-06-11T01:10:48.499Z,0.00
2018-06-11T01:11:48.492Z,0.00
2018-06-11T01:12:48.487Z,0.00
2018-06-11T01:13:48.481Z,0.00
2018-06-11T01:14:48.475Z,0.00
2018-06-11T01:15:48.468Z,0.00
2018-06-11T01:16:48.463Z,0.00
2018-06-11T01:17:48.457Z,0.00
2018-06-11T01:18:48.454Z,0.00
2018-06-11T01:19:48.451Z,0.00
2018-06-11T01:20:48.444Z,0.00
2018-06-11T01:21:48.440Z,0.00
2018-06-11T01:22:48.434Z,0.00
2018-06-11T01:23:48.424Z,0.00
2018-06-11T01:24:48.430Z,0.00
2018-06-11T01:25:48.418Z,0.00
2018-06-11T01:26:48.412Z,0.00
2018-06-11T01:27:48.407Z,0.00
2018-06-11T01:28:48.400Z,0.00
2018-06-11T01:29:48.391Z,0.00
2018-06-11T01:30:48.386Z,0.00
2018-06-11T01:31:48.384Z,0.00
2018-06-11T01:32:48.382Z,0.00
2018-06-11T01:33:48.375Z,0.00
2018-06-11T01:34:48.370Z,0.00
2018-06-11T01:35:48.365Z,0.00
2018-06-11T01:36:48.354Z,0.00
2018-06-11T01:37:48.349Z,0.00
2018-06-11T01:38:48.342Z,0.00
2018-06-11T01:39:48.342Z,0.00
2018-06-11T01:40:48.340Z,0.00
2018-06-11T01:41:48.330Z,0.00
2018-06-11T01:42:48.324Z,0.00
2018-06-11T01:43:48.318Z,0.00
2018-06-11T01:44:48.313Z,0.00
2018-06-11T01:45:48.307Z,0.00
2018-06-11T01:46:48.302Z,0.00
2018-06-11T01:47:48.297Z,0.00
2018-06-11T01:48:48.293Z,0.00
2018-06-11T01:49:48.286Z,0.00
2018-06-11T01:50:48.278Z,0.00
2018-06-11T01:51:48.274Z,0.00
2018-06-11T01:52:48.275Z,0.00
2018-06-11T01:53:48.265Z,0.00
2018-06-11T01:54:48.261Z,0.00
2018-06-11T01:55:48.255Z,0.00
2018-06-11T01:56:48.246Z,0.00
2018-06-11T01:57:48.238Z,0.00
2018-06-11T01:58:48.235Z,0.00
2018-06-11T01:59:48.262Z,0.00
2018-06-11T02:00:48.235Z,0.00
2018-06-11T02:01:48.222Z,0.00
2018-06-11T02:02:48.217Z,0.00
2018-06-11T02:03:48.240Z,0.00
2018-06-11T02:04:48.205Z,0.00
2018-06-11T02:05:48.198Z,0.00
2018-06-11T02:06:48.192Z,0.00
2018-06-11T02:07:48.189Z,0.00
2018-06-11T02:08:48.186Z,0.00
2018-06-11T02:09:48.178Z,0.00
2018-06-11T02:10:48.175Z,0.00
2018-06-11T02:11:48.164Z,0.00
2018-06-11T02:12:48.160Z,0.00
2018-06-11T02:13:48.161Z,0.00
2018-06-11T02:14:48.150Z,0.00
2018-06-11T02:15:48.144Z,0.00
2018-06-11T02:16:48.142Z,0.00
2018-06-11T02:17:48.132Z,0.00
2018-06-11T02:18:48.128Z,0.00
2018-06-11T02:19:48.124Z,0.00
2018-06-11T02:20:48.112Z,0.00
2018-06-11T02:21:48.120Z,0.00
2018-06-11T02:22:48.119Z,0.00
2018-06-11T02:23:48.107Z,0.00
2018-06-11T02:24:48.095Z,0.00
2018-06-11T02:25:48.087Z,0.00
2018-06-11T02:26:48.088Z,0.00
2018-06-11T02:27:48.082Z,4.00
2018-06-11T02:28:48.076Z,4.00
2018-06-11T02:29:48.068Z,4.00
2018-06-11T02:30:48.064Z,0.00
2018-06-11T02:31:48.057Z,0.00
2018-06-11T02:32:48.055Z,4.00
2018-06-11T02:33:48.047Z,4.00
2018-06-11T02:34:48.043Z,4.00
2018-06-11T02:35:48.041Z,4.00
2018-06-11T02:36:48.032Z,4.00
2018-06-11T02:37:48.023Z,8.00
2018-06-11T02:38:48.023Z,4.00
2018-06-11T02:39:48.014Z,8.00
2018-06-11T02:40:48.005Z,8.00
2018-06-11T02:41:48.000Z,8.00
2018-06-11T02:42:48.006Z,12.00
2018-06-11T02:43:47.997Z,12.00
2018-06-11T02:44:47.988Z,16.00
2018-06-11T02:45:47.977Z,16.00
2018-06-11T02:46:47.974Z,16.00
2018-06-11T02:47:47.968Z,20.00
2018-06-11T02:48:47.962Z,24.00
2018-06-11T02:49:47.960Z,24.00
2018-06-11T02:50:47.958Z,28.00
2018-06-11T02:51:47.952Z,32.00
2018-06-11T02:52:47.945Z,36.00
2018-06-11T02:53:47.933Z,36.00
2018-06-11T02:54:47.931Z,40.00
2018-06-11T02:55:47.923Z,48.00
2018-06-11T02:56:47.923Z,48.00
2018-06-11T02:57:47.914Z,56.00
2018-06-11T02:58:47.912Z,60.00
2018-06-11T02:59:47.909Z,68.00
2018-06-11T03:00:47.897Z,76.00
2018-06-11T03:01:47.889Z,84.00
2018-06-11T03:02:47.887Z,92.00
2018-06-11T03:03:47.895Z,96.00
2018-06-11T03:04:47.879Z,104.00
2018-06-11T03:05:47.871Z,116.00
2018-06-11T03:06:47.875Z,124.00
2018-06-11T03:07:47.863Z,136.00
2018-06-11T03:08:47.856Z,144.00
2018-06-11T03:09:47.846Z,156.00
2018-06-11T03:10:47.843Z,168.00
2018-06-11T03:11:47.839Z,184.00
2018-06-11T03:12:47.832Z,200.00
2018-06-11T03:13:47.827Z,212.00
2018-06-11T03:14:47.820Z,228.00
2018-06-11T03:15:47.816Z,240.00
2018-06-11T03:16:47.809Z,248.00
2018-06-11T03:17:47.805Z,260.00
2018-06-11T03:18:47.800Z,276.00
2018-06-11T03:19:47.800Z,288.00
2018-06-11T03:20:47.793Z,300.00
2018-06-11T03:21:47.787Z,316.00
2018-06-11T03:22:47.780Z,332.00
2018-06-11T03:23:47.830Z,348.00
2018-06-11T03:24:47.774Z,368.00
2018-06-11T03:25:47.764Z,384.00
2018-06-11T03:26:47.760Z,400.00
2018-06-11T03:27:47.752Z,420.00
2018-06-11T03:28:47.746Z,436.00
2018-06-11T03:29:47.739Z,452.00
2018-06-11T03:30:47.733Z,472.00
2018-06-11T03:31:47.733Z,492.00
2018-06-11T03:32:47.726Z,524.00
2018-06-11T03:33:47.722Z,556.00
2018-06-11T03:34:47.714Z,584.00
2018-06-11T03:35:47.779Z,608.00
2018-06-11T03:36:47.698Z,628.00
2018-06-11T03:37:47.699Z,656.00
2018-06-11T03:38:47.686Z,684.00
2018-06-11T03:39:47.686Z,712.00
2018-06-11T03:40:47.681Z,736.00
2018-06-11T03:41:47.675Z,744.00
2018-06-11T03:42:47.668Z,744.00
2018-06-11T03:43:47.659Z,764.00
2018-06-11T03:44:47.653Z,796.00
2018-06-11T03:45:47.649Z,796.00
2018-06-11T03:46:47.647Z,768.00
2018-06-11T03:47:47.644Z,764.00
2018-06-11T03:48:47.635Z,768.00
2018-06-11T03:49:47.624Z,772.00
2018-06-11T03:50:47.621Z,780.00
2018-06-11T03:51:47.614Z,800.00
2018-06-11T03:52:47.614Z,824.00
2018-06-11T03:53:47.604Z,856.00
2018-06-11T03:54:47.603Z,900.00
2018-06-11T03:55:47.597Z,944.00
2018-06-11T03:56:47.591Z,976.00
2018-06-11T03:57:47.581Z,988.00
2018-06-11T03:58:47.573Z,1000.00
2018-06-11T03:59:47.569Z,1028.00
2018-06-11T04:00:47.595Z,1064.00
2018-06-11T04:01:47.561Z,1104.00
2018-06-11T04:02:47.554Z,1156.00
2018-06-11T04:03:47.546Z,1240.00
2018-06-11T04:04:47.540Z,1332.00
2018-06-11T04:05:47.535Z,1416.00
2018-06-11T04:06:47.534Z,1468.00
2018-06-11T04:07:47.524Z,1516.00
2018-06-11T04:08:47.521Z,1556.00
2018-06-11T04:09:47.517Z,1600.00
2018-06-11T04:10:47.582Z,1644.00
2018-06-11T04:11:47.504Z,1700.00
2018-06-11T04:12:47.518Z,1752.00
2018-06-11T04:13:47.493Z,1792.00
2018-06-11T04:14:47.487Z,1844.00
2018-06-11T04:15:47.482Z,1920.00
2018-06-11T04:16:47.475Z,2020.00
2018-06-11T04:17:47.466Z,2116.00
2018-06-11T04:18:47.467Z,2196.00
2018-06-11T04:19:47.459Z,2244.00
2018-06-11T04:20:47.453Z,2284.00
2018-06-11T04:21:47.446Z,2308.00
2018-06-11T04:22:47.443Z,2332.00
2018-06-11T04:23:47.436Z,2360.00
2018-06-11T04:24:47.427Z,2400.00
2018-06-11T04:25:47.420Z,2404.00
2018-06-11T04:26:47.418Z,2356.00
2018-06-11T04:27:47.420Z,2304.00
2018-06-11T04:28:47.411Z,2280.00
2018-06-11T04:29:47.398Z,2292.00
2018-06-11T04:30:47.395Z,2308.00
2018-06-11T04:31:47.389Z,2328.00
2018-06-11T04:32:47.385Z,2336.00
2018-06-11T04:33:47.373Z,2328.00
2018-06-11T04:34:47.374Z,2320.00
2018-06-11T04:35:47.371Z,2304.00
2018-06-11T04:36:47.363Z,2296.00
2018-06-11T04:37:47.358Z,2292.00
2018-06-11T04:38:47.349Z,2284.00
2018-06-11T04:39:47.342Z,2276.00
2018-06-11T04:40:47.337Z,2248.00
2018-06-11T04:41:47.333Z,2244.00
2018-06-11T04:42:47.328Z,2264.00
2018-06-11T04:43:47.322Z,2292.00
2018-06-11T04:44:47.320Z,2316.00
2018-06-11T04:45:47.311Z,2312.00
2018-06-11T04:46:47.300Z,2268.00
2018-06-11T04:47:47.297Z,2244.00
2018-06-11T04:48:47.292Z,2224.00
2018-06-11T04:49:47.287Z,2240.00
2018-06-11T04:50:47.281Z,2292.00
2018-06-11T04:51:47.276Z,2328.00
2018-06-11T04:52:47.272Z,2244.00
2018-06-11T04:53:47.269Z,2136.00
2018-06-11T04:54:47.260Z,2060.00
2018-06-11T04:55:47.247Z,2068.00
2018-06-11T04:56:47.245Z,2176.00
2018-06-11T04:57:47.241Z,2240.00
2018-06-11T04:58:47.247Z,2304.00
2018-06-11T04:59:47.227Z,2688.00
2018-06-11T05:00:47.222Z,3496.00
2018-06-11T05:01:47.215Z,4224.00
2018-06-11T05:02:47.217Z,4416.00
2018-06-11T05:03:47.206Z,4068.00
2018-06-11T05:04:47.198Z,3956.00
2018-06-11T05:05:47.195Z,3708.00
2018-06-11T05:06:47.217Z,4096.00
2018-06-11T05:07:47.182Z,4212.00
2018-06-11T05:08:47.188Z,4184.00
2018-06-11T05:09:47.173Z,3840.00
2018-06-11T05:10:47.169Z,3208.00
2018-06-11T05:11:47.156Z,3872.00
2018-06-11T05:12:47.154Z,4496.00
2018-06-11T05:13:47.159Z,4588.00
2018-06-11T05:14:47.156Z,4764.00
2018-06-11T05:15:47.163Z,4844.00
2018-06-11T05:16:47.139Z,4860.00
2018-06-11T05:17:47.142Z,4860.00
2018-06-11T05:18:47.124Z,4900.00
2018-06-11T05:19:47.114Z,5028.00
2018-06-11T05:20:47.111Z,5132.00
2018-06-11T05:21:47.103Z,5204.00
2018-06-11T05:22:47.104Z,5288.00
2018-06-11T05:23:47.093Z,5360.00
2018-06-11T05:24:47.093Z,5436.00
2018-06-11T05:25:47.093Z,5480.00
2018-06-11T05:26:47.076Z,5472.00
2018-06-11T05:27:47.070Z,5528.00
2018-06-11T05:28:47.120Z,5528.00
2018-06-11T05:29:47.060Z,5492.00
2018-06-11T05:30:47.067Z,5580.00
2018-06-11T05:31:47.062Z,5684.00
2018-06-11T05:32:47.046Z,5780.00
2018-06-11T05:33:47.050Z,5968.00
2018-06-11T05:34:47.039Z,6160.00
2018-06-11T05:35:47.032Z,6244.00
2018-06-11T05:36:47.020Z,6332.00
2018-06-11T05:37:47.017Z,6472.00
2018-06-11T05:38:47.011Z,6596.00
2018-06-11T05:39:47.016Z,6604.00
2018-06-11T05:40:47.027Z,6364.00
2018-06-11T05:41:46.993Z,5148.00
2018-06-11T05:42:46.990Z,5904.00
2018-06-11T05:43:46.984Z,6308.00
2018-06-11T05:44:46.976Z,6360.00
2018-06-11T05:45:47.072Z,6280.00
2018-06-11T05:46:46.973Z,6192.00
2018-06-11T05:47:46.968Z,6032.00
2018-06-11T05:48:46.999Z,5912.00
2018-06-11T05:49:46.953Z,5912.00
2018-06-11T05:50:47.003Z,5932.00
2018-06-11T05:51:46.962Z,5988.00
2018-06-11T05:52:46.947Z,6052.00
2018-06-11T05:53:46.932Z,6224.00
2018-06-11T05:54:46.927Z,6476.00
2018-06-11T05:55:46.917Z,6664.00
2018-06-11T05:56:46.916Z,6756.00
2018-06-11T05:57:46.906Z,6968.00
2018-06-11T05:58:46.907Z,7120.00
2018-06-11T05:59:46.900Z,7220.00
2018-06-11T06:00:46.898Z,7316.00
2018-06-11T06:01:46.890Z,7372.00
2018-06-11T06:02:46.882Z,7368.00
2018-06-11T06:03:46.876Z,7284.00
2018-06-11T06:04:46.871Z,7396.00
2018-06-11T06:05:46.871Z,7548.00
2018-06-11T06:06:46.872Z,7488.00
2018-06-11T06:07:46.857Z,7508.00
2018-06-11T06:08:46.889Z,7988.00
2018-06-11T06:09:46.848Z,8188.00
2018-06-11T06:10:46.837Z,8320.00
2018-06-11T06:11:46.837Z,8520.00
2018-06-11T06:12:46.832Z,8804.00
2018-06-11T06:13:46.825Z,9020.00
2018-06-11T06:14:46.822Z,9212.00
2018-06-11T06:15:46.832Z,9260.00
2018-06-11T06:16:46.808Z,9096.00
2018-06-11T06:17:46.802Z,9188.00
2018-06-11T06:18:46.807Z,9556.00
2018-06-11T06:19:46.801Z,9964.00
2018-06-11T06:20:46.788Z,10128.00
2018-06-11T06:21:46.783Z,10220.00
2018-06-11T06:22:46.779Z,10384.00
2018-06-11T06:23:46.775Z,10336.00
2018-06-11T06:24:46.769Z,9772.00
2018-06-11T06:25:46.762Z,8388.00
2018-06-11T06:26:46.785Z,7332.00
2018-06-11T06:27:46.749Z,8092.00
2018-06-11T06:28:46.749Z,9268.00
2018-06-11T06:29:46.739Z,9580.00
2018-06-11T06:30:46.747Z,9636.00
2018-06-11T06:31:46.730Z,8344.00
2018-06-11T06:32:46.732Z,7020.00
2018-06-11T06:33:46.727Z,8436.00
2018-06-11T06:34:46.806Z,10884.00
2018-06-11T06:35:46.725Z,11900.00
2018-06-11T06:36:46.710Z,12072.00
2018-06-11T06:37:46.704Z,11664.00
2018-06-11T06:38:46.698Z,9752.00
2018-06-11T06:39:46.698Z,9320.00
2018-06-11T06:40:46.699Z,10844.00
2018-06-11T06:41:46.692Z,12108.00
2018-06-11T06:42:46.683Z,11320.00
2018-06-11T06:43:46.676Z,9812.00
2018-06-11T06:44:46.671Z,8808.00
2018-06-11T06:45:46.666Z,9264.00
2018-06-11T06:46:46.671Z,9972.00
2018-06-11T06:47:46.658Z,10264.00
2018-06-11T06:48:46.657Z,9972.00
2018-06-11T06:49:46.647Z,10392.00
2018-06-11T06:50:46.645Z,10820.00
2018-06-11T06:51:46.659Z,10856.00
2018-06-11T06:52:46.641Z,10684.00
2018-06-11T06:53:46.633Z,10104.00
2018-06-11T06:54:46.628Z,9044.00
2018-06-11T06:55:46.630Z,8328.00
2018-06-11T06:56:46.618Z,7760.00
2018-06-11T06:57:46.612Z,8108.00
2018-06-11T06:58:46.609Z,9396.00
2018-06-11T06:59:46.606Z,11296.00
2018-06-11T07:00:46.605Z,13040.00
2018-06-11T07:01:46.596Z,15456.00
2018-06-11T07:02:46.598Z,15564.00
2018-06-11T07:03:46.590Z,14428.00
2018-06-11T07:04:46.587Z,13296.00
2018-06-11T07:05:46.582Z,11848.00
2018-06-11T07:06:46.587Z,10748.00
2018-06-11T07:07:46.578Z,9976.00
2018-06-11T07:08:46.567Z,9508.00
2018-06-11T07:09:46.596Z,9588.00
2018-06-11T07:10:46.560Z,9828.00
2018-06-11T07:11:46.560Z,10168.00
2018-06-11T07:12:46.551Z,11388.00
2018-06-11T07:13:46.598Z,13260.00
2018-06-11T07:14:46.538Z,13648.00
2018-06-11T07:15:46.537Z,13764.00
2018-06-11T07:16:46.534Z,13760.00
2018-06-11T07:17:46.532Z,14128.00
2018-06-11T07:18:46.527Z,15116.00
2018-06-11T07:19:46.521Z,14188.00
2018-06-11T07:20:46.516Z,13396.00
2018-06-11T07:21:46.525Z,11784.00
2018-06-11T07:22:46.511Z,10832.00
2018-06-11T07:23:46.504Z,12456.00
2018-06-11T07:24:46.499Z,14648.00
2018-06-11T07:25:46.497Z,15528.00
2018-06-11T07:26:46.490Z,14832.00
2018-06-11T07:27:46.490Z,13488.00
2018-06-11T07:28:46.488Z,13892.00
2018-06-11T07:29:46.485Z,13856.00
2018-06-11T07:30:46.482Z,14856.00
2018-06-11T07:31:46.479Z,15708.00
2018-06-11T07:32:46.473Z,17344.00
2018-06-11T07:33:46.463Z,19200.00
2018-06-11T07:34:46.463Z,17216.00
2018-06-11T07:35:46.462Z,19744.00
2018-06-11T07:36:46.460Z,30240.00
2018-06-11T07:37:46.457Z,56480.00
2018-06-11T07:38:46.448Z,45152.00
2018-06-11T07:39:46.450Z,27040.00
2018-06-11T07:40:46.440Z,36224.00
2018-06-11T07:41:46.437Z,22560.00
2018-06-11T07:42:46.444Z,21472.00
2018-06-11T07:43:46.433Z,22240.00
2018-06-11T07:44:46.433Z,27008.00
2018-06-11T07:45:46.427Z,28160.00
2018-06-11T07:46:46.426Z,33312.00
2018-06-11T07:47:46.426Z,33888.00
2018-06-11T07:48:46.425Z,22208.00
2018-06-11T07:49:46.419Z,21376.00
2018-06-11T07:50:46.478Z,33760.00
2018-06-11T07:51:46.481Z,37184.00
2018-06-11T07:52:46.416Z,57152.00
2018-06-11T07:53:46.415Z,29152.00
2018-06-11T07:54:46.415Z,55744.00
2018-06-11T07:55:46.415Z,47936.00
2018-06-11T07:56:46.416Z,69184.00
2018-06-11T07:57:46.415Z,37120.00
2018-06-11T07:58:46.415Z,63488.00
2018-06-11T07:59:46.412Z,63808.00
2018-06-11T08:00:46.412Z,63776.00
2018-06-11T08:01:46.413Z,65440.00
2018-06-11T08:02:46.415Z,63776.00
2018-06-11T08:03:46.420Z,63712.00
2018-06-11T08:04:46.431Z,62176.00
2018-06-11T08:05:46.419Z,62720.00
2018-06-11T08:06:46.420Z,57664.00
2018-06-11T08:07:46.425Z,24544.00
2018-06-11T08:08:46.426Z,58592.00
2018-06-11T08:09:46.431Z,24352.00
2018-06-11T08:10:46.430Z,65376.00
2018-06-11T08:11:46.434Z,66848.00
2018-06-11T08:12:46.431Z,65888.00
2018-06-11T08:13:46.436Z,65568.00
2018-06-11T08:14:46.440Z,66336.00
2018-06-11T08:15:46.441Z,64576.00
2018-06-11T08:16:46.455Z,62848.00
2018-06-11T08:17:46.455Z,64384.00
2018-06-11T08:18:46.454Z,64544.00
2018-06-11T08:19:46.458Z,61664.00
2018-06-11T08:20:46.475Z,63712.00
2018-06-11T08:21:46.461Z,63328.00
2018-06-11T08:22:46.466Z,64960.00
2018-06-11T08:23:46.473Z,66592.00
2018-06-11T08:24:46.479Z,66464.00
2018-06-11T08:25:46.473Z,66080.00
2018-06-11T08:26:46.484Z,66752.00
2018-06-11T08:27:46.485Z,63232.00
2018-06-11T08:28:46.488Z,63616.00
2018-06-11T08:29:46.496Z,61632.00
2018-06-11T08:30:46.499Z,65728.00
2018-06-11T08:31:46.502Z,63328.00
2018-06-11T08:32:46.504Z,28864.00
2018-06-11T08:33:46.572Z,25984.00
2018-06-11T08:34:46.517Z,55584.00
2018-06-11T08:35:46.524Z,67904.00
2018-06-11T08:36:46.524Z,64096.00
2018-06-11T08:37:46.533Z,69120.00
2018-06-11T08:38:46.537Z,63712.00
2018-06-11T08:39:46.543Z,57536.00
2018-06-11T08:40:46.549Z,60192.00
2018-06-11T08:41:46.549Z,61632.00
2018-06-11T08:42:46.552Z,58912.00
2018-06-11T08:43:46.556Z,63936.00
2018-06-11T08:44:46.562Z,72416.00
2018-06-11T08:45:46.573Z,70464.00
2018-06-11T08:46:46.574Z,65920.00
2018-06-11T08:47:46.578Z,69568.00
2018-06-11T08:48:46.580Z,68160.00
2018-06-11T08:49:46.591Z,69120.00
2018-06-11T08:50:46.592Z,69024.00
2018-06-11T08:51:46.601Z,70688.00
2018-06-11T08:52:46.610Z,66432.00
2018-06-11T08:53:46.613Z,65888.00
2018-06-11T08:54:46.612Z,65984.00
2018-06-11T08:55:46.621Z,24000.00
2018-06-11T08:56:46.628Z,27584.00
2018-06-11T08:57:46.632Z,29312.00
2018-06-11T08:58:46.637Z,27040.00
2018-06-11T08:59:46.646Z,26240.00
2018-06-11T09:00:46.654Z,25440.00
2018-06-11T09:01:46.649Z,26752.00
2018-06-11T09:02:46.657Z,26336.00
2018-06-11T09:03:46.664Z,73312.00
2018-06-11T09:04:46.667Z,71424.00
2018-06-11T09:05:46.677Z,71040.00
2018-06-11T09:06:46.683Z,74880.00
2018-06-11T09:07:46.689Z,77088.00
2018-06-11T09:08:46.691Z,76800.00
2018-06-11T09:09:46.699Z,76512.00
2018-06-11T09:10:46.705Z,77088.00
2018-06-11T09:11:46.711Z,75840.00
2018-06-11T09:12:46.717Z,76960.00
2018-06-11T09:13:46.721Z,55840.00
2018-06-11T09:14:46.731Z,70080.00
2018-06-11T09:15:46.734Z,60800.00
2018-06-11T09:16:46.742Z,81664.00
2018-06-11T09:17:46.752Z,80192.00
2018-06-11T09:18:46.753Z,81152.00
2018-06-11T09:19:46.763Z,82464.00
2018-06-11T09:20:46.771Z,83552.00
2018-06-11T09:21:46.780Z,80832.00
2018-06-11T09:22:46.784Z,81952.00
2018-06-11T09:23:46.787Z,85696.00
2018-06-11T09:24:46.795Z,85920.00
2018-06-11T09:25:46.803Z,85280.00
2018-06-11T09:26:46.831Z,84832.00
2018-06-11T09:27:46.817Z,87680.00
2018-06-11T09:28:46.820Z,88032.00
2018-06-11T09:29:46.831Z,78496.00
2018-06-11T09:30:46.837Z,86112.00
2018-06-11T09:31:46.847Z,87904.00
2018-06-11T09:32:46.864Z,89344.00
2018-06-11T09:33:46.871Z,79712.00
2018-06-11T09:34:46.866Z,91008.00
2018-06-11T09:35:46.875Z,94656.00
2018-06-11T09:36:46.879Z,91936.00
2018-06-11T09:37:46.883Z,88768.00
2018-06-11T09:38:46.894Z,84128.00
2018-06-11T09:39:46.899Z,67872.00
2018-06-11T09:40:46.913Z,71520.00
2018-06-11T09:41:46.920Z,55232.00
2018-06-11T09:42:46.927Z,62560.00
2018-06-11T09:43:46.947Z,72032.00
2018-06-11T09:44:46.941Z,65632.00
2018-06-11T09:45:46.945Z,54720.00
2018-06-11T09:46:46.954Z,38016.00
2018-06-11T09:47:46.965Z,36256.00
2018-06-11T09:48:46.973Z,42592.00
2018-06-11T09:49:46.979Z,43776.00
2018-06-11T09:50:46.987Z,53888.00
2018-06-11T09:51:46.989Z,55616.00
2018-06-11T09:52:46.996Z,48352.00
2018-06-11T09:53:47.008Z,35904.00
2018-06-11T09:54:47.018Z,35744.00
2018-06-11T09:55:47.032Z,58688.00
2018-06-11T09:56:47.025Z,80000.00
2018-06-11T09:57:47.027Z,62432.00
2018-06-11T09:58:47.034Z,70176.00
2018-06-11T09:59:47.060Z,63552.00
2018-06-11T10:00:47.052Z,58336.00
2018-06-11T10:01:47.056Z,52928.00
2018-06-11T10:02:47.059Z,58144.00
2018-06-11T10:03:47.064Z,78240.00
2018-06-11T10:04:47.071Z,88192.00
2018-06-11T10:05:47.077Z,86144.00
2018-06-11T10:06:47.080Z,85440.00
2018-06-11T10:07:47.089Z,90656.00
2018-06-11T10:08:47.097Z,70400.00
2018-06-11T10:09:47.107Z,73824.00
2018-06-11T10:10:47.115Z,76608.00
2018-06-11T10:11:47.114Z,100768.00
2018-06-11T10:12:47.128Z,100128.00
2018-06-11T10:13:47.125Z,82112.00
2018-06-11T10:14:47.137Z,50016.00
2018-06-11T10:15:47.142Z,31392.00
2018-06-11T10:16:47.154Z,29888.00
2018-06-11T10:17:47.164Z,29344.00
2018-06-11T10:18:47.166Z,32384.00
2018-06-11T10:19:47.164Z,26784.00
2018-06-11T10:20:47.170Z,27936.00
2018-06-11T10:21:47.177Z,21280.00
2018-06-11T10:22:47.185Z,21248.00
2018-06-11T10:23:47.189Z,30656.00
2018-06-11T10:24:47.213Z,67232.00
2018-06-11T10:25:47.201Z,76640.00
2018-06-11T10:26:47.203Z,85952.00
2018-06-11T10:27:47.212Z,44448.00
2018-06-11T10:28:47.223Z,65696.00
2018-06-11T10:29:47.223Z,62848.00
2018-06-11T10:30:47.229Z,84448.00
2018-06-11T10:31:47.236Z,95040.00
2018-06-11T10:32:47.240Z,90304.00
2018-06-11T10:33:47.244Z,89696.00
2018-06-11T10:34:47.254Z,35104.00
2018-06-11T10:35:47.257Z,68032.00
2018-06-11T10:36:47.264Z,92192.00
2018-06-11T10:37:47.271Z,95712.00
2018-06-11T10:38:47.278Z,94496.00
2018-06-11T10:39:47.281Z,90752.00
2018-06-11T10:40:47.287Z,93664.00
2018-06-11T10:41:47.285Z,95104.00
2018-06-11T10:42:47.296Z,95104.00
2018-06-11T10:43:47.300Z,95648.00
2018-06-11T10:44:47.309Z,92640.00
2018-06-11T10:45:47.314Z,91360.00
2018-06-11T10:46:47.316Z,79008.00
2018-06-11T10:47:47.320Z,74720.00
2018-06-11T10:48:47.327Z,85152.00
2018-06-11T10:49:47.338Z,70272.00
2018-06-11T10:50:47.344Z,86528.00
2018-06-11T10:51:47.350Z,89504.00
2018-06-11T10:52:47.355Z,79168.00
2018-06-11T10:53:47.360Z,54816.00
2018-06-11T10:54:47.371Z,84224.00
2018-06-11T10:55:47.379Z,89248.00
2018-06-11T10:56:47.382Z,79776.00
2018-06-11T10:57:47.393Z,86112.00
2018-06-11T10:58:47.397Z,77600.00
2018-06-11T10:59:47.421Z,60064.00
2018-06-11T11:00:47.407Z,40448.00
2018-06-11T11:01:47.416Z,61792.00
2018-06-11T11:02:47.422Z,61312.00
2018-06-11T11:03:47.431Z,88512.00
2018-06-11T11:04:47.437Z,94656.00
2018-06-11T11:05:47.440Z,98592.00
2018-06-11T11:06:47.444Z,98112.00
2018-06-11T11:07:47.451Z,94624.00
2018-06-11T11:08:47.480Z,90944.00
2018-06-11T11:09:47.466Z,87712.00
2018-06-11T11:10:47.477Z,86400.00
2018-06-11T11:11:47.483Z,85408.00
2018-06-11T11:12:47.489Z,89952.00
2018-06-11T11:13:47.494Z,96000.00
2018-06-11T11:14:47.498Z,100192.00
2018-06-11T11:15:47.506Z,99584.00
2018-06-11T11:16:47.536Z,98912.00
2018-06-11T11:17:47.523Z,98752.00
2018-06-11T11:18:47.541Z,99424.00
2018-06-11T11:19:47.538Z,100064.00
2018-06-11T11:20:47.539Z,103584.00
2018-06-11T11:21:47.547Z,103520.00
2018-06-11T11:22:47.553Z,105600.00
2018-06-11T11:23:47.562Z,104704.00
2018-06-11T11:24:47.570Z,104896.00
2018-06-11T11:25:47.578Z,105152.00
2018-06-11T11:26:47.583Z,107776.00
2018-06-11T11:27:47.600Z,103648.00
2018-06-11T11:28:47.597Z,104192.00
2018-06-11T11:29:47.609Z,103808.00
2018-06-11T11:30:47.612Z,103904.00
2018-06-11T11:31:47.623Z,104640.00
2018-06-11T11:32:47.635Z,104480.00
2018-06-11T11:33:47.653Z,102144.00
2018-06-11T11:34:47.647Z,103936.00
2018-06-11T11:35:47.650Z,103936.00
2018-06-11T11:36:47.658Z,98080.00
2018-06-11T11:37:47.666Z,96256.00
2018-06-11T11:38:47.679Z,102208.00
2018-06-11T11:39:47.686Z,103968.00
2018-06-11T11:40:47.693Z,101344.00
2018-06-11T11:41:47.695Z,100928.00
2018-06-11T11:42:47.705Z,101312.00
2018-06-11T11:43:47.710Z,100032.00
2018-06-11T11:44:47.722Z,98496.00
2018-06-11T11:45:47.729Z,99232.00
2018-06-11T11:46:47.741Z,101312.00
2018-06-11T11:47:47.746Z,94496.00
2018-06-11T11:48:47.748Z,103136.00
2018-06-11T11:49:47.755Z,106976.00
2018-06-11T11:50:47.770Z,107168.00
2018-06-11T11:51:47.772Z,104704.00
2018-06-11T11:52:47.784Z,105440.00
2018-06-11T11:53:47.789Z,104320.00
2018-06-11T11:54:47.802Z,104864.00
2018-06-11T11:55:47.804Z,104096.00
2018-06-11T11:56:47.807Z,103008.00
2018-06-11T11:57:47.814Z,106784.00
2018-06-11T11:58:47.832Z,104992.00
2018-06-11T11:59:47.834Z,104768.00
2018-06-11T12:00:47.844Z,98816.00
2018-06-11T12:01:47.876Z,102528.00
2018-06-11T12:02:47.857Z,105024.00
2018-06-11T12:03:47.865Z,104320.00
2018-06-11T12:04:47.873Z,104864.00
2018-06-11T12:05:47.882Z,107360.00
2018-06-11T12:06:47.889Z,101888.00
2018-06-11T12:07:47.899Z,98752.00
2018-06-11T12:08:47.901Z,100352.00
2018-06-11T12:09:47.902Z,102528.00
2018-06-11T12:10:47.918Z,106016.00
2018-06-11T12:11:47.929Z,101088.00
2018-06-11T12:12:47.932Z,99904.00